createdAt,value
2023-03-06T00:00:31.293Z,11.45
2023-03-06T00:01:34.195Z,12.85
2023-03-06T00:02:37.123Z,6.82
2023-03-06T00:03:40.038Z,10.57
2023-03-06T00:04:43.111Z,12.35
2023-03-06T00:05:46.484Z,12.65
2023-03-06T00:06:49.383Z,10.48
2023-03-06T00:07:52.406Z,8.00
2023-03-06T00:08:55.350Z,10.75
2023-03-06T00:09:58.496Z,10.07
2023-03-06T00:11:01.624Z,10.13
2023-03-06T00:12:04.871Z,9.77
2023-03-06T00:13:12.090Z,9.00
2023-03-06T00:14:15.096Z,12.20
2023-03-06T00:15:18.090Z,10.27
2023-03-06T00:16:21.120Z,9.05
2023-03-06T00:17:24.417Z,9.07
2023-03-06T00:19:30.799Z,9.68
2023-03-06T00:20:35.557Z,9.20
2023-03-06T00:21:41.459Z,11.07
2023-03-06T00:22:44.666Z,8.20
2023-03-06T00:23:47.603Z,11.23
2023-03-06T00:24:54.102Z,11.95
2023-03-06T00:25:56.993Z,8.00
2023-03-06T00:27:00.128Z,12.32
2023-03-06T00:28:03.433Z,11.12
2023-03-06T00:29:06.541Z,9.80
2023-03-06T00:30:14.034Z,8.73
2023-03-06T00:31:17.422Z,10.68
2023-03-06T00:32:20.601Z,6.65
2023-03-06T00:33:23.549Z,11.10
2023-03-06T00:34:26.638Z,8.38
2023-03-06T00:35:29.760Z,9.07
2023-03-06T00:36:32.793Z,11.90
2023-03-06T00:37:35.791Z,8.85
2023-03-06T00:38:38.782Z,9.40
2023-03-06T00:39:42.167Z,8.27
2023-03-06T00:40:45.378Z,10.57
2023-03-06T00:41:48.262Z,9.10
2023-03-06T00:42:51.274Z,8.88
2023-03-06T00:43:54.109Z,6.78
2023-03-06T00:44:56.944Z,9.48
2023-03-06T00:46:00.068Z,8.90
2023-03-06T00:47:03.206Z,8.60
2023-03-06T00:48:06.718Z,10.32
2023-03-06T00:49:09.669Z,8.45
2023-03-06T00:50:12.920Z,11.30
2023-03-06T00:51:17.509Z,8.32
2023-03-06T00:52:20.540Z,9.55
2023-03-06T00:53:23.562Z,9.20
2023-03-06T00:54:26.561Z,9.65
2023-03-06T00:55:31.246Z,10.30
2023-03-06T00:56:34.608Z,6.82
2023-03-06T00:57:38.162Z,8.70
2023-03-06T00:58:42.040Z,9.13
2023-03-06T00:59:46.298Z,10.88
2023-03-06T01:00:49.755Z,10.55
2023-03-06T01:01:52.950Z,10.57
2023-03-06T01:02:56.349Z,11.63
2023-03-06T01:03:59.521Z,9.35
2023-03-06T01:05:02.857Z,9.43
2023-03-06T01:06:06.284Z,8.35
2023-03-06T01:07:09.618Z,10.02
2023-03-06T01:08:12.757Z,8.20
2023-03-06T01:09:16.262Z,8.93
2023-03-06T01:10:19.527Z,8.95
2023-03-06T01:11:22.769Z,9.85
2023-03-06T01:12:25.898Z,6.43
2023-03-06T01:13:28.712Z,6.22
2023-03-06T01:14:32.303Z,9.85
2023-03-06T01:15:35.387Z,7.93
2023-03-06T01:16:38.760Z,7.85
2023-03-06T01:17:41.834Z,8.05
2023-03-06T01:18:45.592Z,8.07
2023-03-06T01:19:48.490Z,9.77
2023-03-06T01:20:51.643Z,11.95
2023-03-06T01:21:55.078Z,7.28
2023-03-06T01:22:58.160Z,6.90
2023-03-06T01:24:01.112Z,8.07
2023-03-06T01:25:04.291Z,9.07
2023-03-06T01:26:07.592Z,9.63
2023-03-06T01:27:10.937Z,9.15
2023-03-06T01:28:13.960Z,10.45
2023-03-06T01:29:16.944Z,9.57
2023-03-06T01:30:20.987Z,9.88
2023-03-06T01:31:25.386Z,7.25
2023-03-06T01:32:28.344Z,8.30
2023-03-06T01:33:31.613Z,7.20
2023-03-06T01:34:34.588Z,10.73
2023-03-06T01:35:38.925Z,8.05
2023-03-06T01:36:42.239Z,5.15
2023-03-06T01:37:45.689Z,8.88
2023-03-06T01:38:48.661Z,8.50
2023-03-06T01:39:52.017Z,9.60
2023-03-06T01:40:54.979Z,7.87
2023-03-06T01:41:58.231Z,7.85
2023-03-06T01:43:10.977Z,8.18
2023-03-06T01:44:14.001Z,9.68
2023-03-06T01:45:16.816Z,8.90
2023-03-06T01:46:42.218Z,6.47
2023-03-06T01:47:45.493Z,6.75
2023-03-06T01:48:51.863Z,7.72
2023-03-06T01:49:56.528Z,8.13
2023-03-06T01:50:59.846Z,8.57
2023-03-06T01:52:11.235Z,8.75
2023-03-06T01:53:15.614Z,8.43
2023-03-06T01:54:24.752Z,9.00
2023-03-06T01:55:33.138Z,8.05
2023-03-06T01:56:37.152Z,9.57
2023-03-06T01:57:52.955Z,10.48
2023-03-06T01:58:57.417Z,9.23
2023-03-06T02:00:07.053Z,7.60
2023-03-06T02:01:12.391Z,10.25
2023-03-06T02:02:16.549Z,7.10
2023-03-06T02:03:25.720Z,9.27
2023-03-06T02:04:29.578Z,8.40
2023-03-06T02:05:33.627Z,11.32
2023-03-06T02:06:38.697Z,7.93
2023-03-06T02:07:43.199Z,8.13
2023-03-06T02:08:52.339Z,8.05
2023-03-06T02:09:55.325Z,8.75
2023-03-06T02:11:16.339Z,7.28
2023-03-06T02:12:20.830Z,6.95
2023-03-06T02:13:23.985Z,11.90
2023-03-06T02:14:27.144Z,9.05
2023-03-06T02:15:31.104Z,8.65
2023-03-06T02:16:34.891Z,7.10
2023-03-06T02:17:38.495Z,7.07
2023-03-06T02:18:43.072Z,7.05
2023-03-06T02:19:56.702Z,9.88
2023-03-06T02:21:09.527Z,7.95
2023-03-06T02:22:12.610Z,7.93
2023-03-06T02:23:40.927Z,5.65
2023-03-06T02:24:52.793Z,7.78
2023-03-06T02:25:57.598Z,8.88
2023-03-06T02:27:03.387Z,9.35
2023-03-06T02:28:10.415Z,7.72
2023-03-06T02:29:19.460Z,7.32
2023-03-06T02:30:23.969Z,5.97
2023-03-06T02:31:31.046Z,11.12
2023-03-06T02:32:34.046Z,8.82
2023-03-06T02:33:37.091Z,6.10
2023-03-06T02:34:39.967Z,6.65
2023-03-06T02:35:58.675Z,6.90
2023-03-06T02:37:09.212Z,8.18
2023-03-06T02:38:16.208Z,7.07
2023-03-06T02:39:22.134Z,5.85
2023-03-06T02:40:25.547Z,7.75
2023-03-06T02:41:28.575Z,7.97
2023-03-06T02:42:31.774Z,7.68
2023-03-06T02:43:38.820Z,8.02
2023-03-06T02:44:41.889Z,10.30
2023-03-06T02:45:48.464Z,7.25
2023-03-06T02:46:51.442Z,7.65
2023-03-06T02:47:54.409Z,10.68
2023-03-06T02:48:57.337Z,8.18
2023-03-06T02:50:00.247Z,7.78
2023-03-06T02:51:03.439Z,9.35
2023-03-06T02:52:07.688Z,6.62
2023-03-06T02:53:12.949Z,7.18
2023-03-06T02:54:18.581Z,6.80
2023-03-06T02:55:21.867Z,6.85
2023-03-06T02:56:24.835Z,6.93
2023-03-06T02:57:27.816Z,6.97
2023-03-06T02:58:30.877Z,8.60
2023-03-06T02:59:33.910Z,8.10
2023-03-06T03:00:37.167Z,8.02
2023-03-06T03:01:40.340Z,9.93
2023-03-06T03:02:44.320Z,7.82
2023-03-06T03:03:47.354Z,7.85
2023-03-06T03:04:50.260Z,8.30
2023-03-06T03:05:53.234Z,9.98
2023-03-06T03:06:56.406Z,8.05
2023-03-06T03:07:59.514Z,8.27
2023-03-06T03:09:02.543Z,9.52
2023-03-06T03:10:06.156Z,8.13
2023-03-06T03:11:09.594Z,8.18
2023-03-06T03:12:12.821Z,9.82
2023-03-06T03:13:15.743Z,6.80
2023-03-06T03:14:18.679Z,9.02
2023-03-06T03:15:22.221Z,8.27
2023-03-06T03:16:25.267Z,6.87
2023-03-06T03:17:28.301Z,9.10
2023-03-06T03:18:31.764Z,9.85
2023-03-06T03:19:35.230Z,8.50
2023-03-06T03:20:42.158Z,7.28
2023-03-06T03:21:45.064Z,9.85
2023-03-06T03:22:54.022Z,6.50
2023-03-06T03:23:57.073Z,6.80
2023-03-06T03:25:00.024Z,6.60
2023-03-06T03:26:14.093Z,9.05
2023-03-06T03:27:17.276Z,6.15
2023-03-06T03:28:20.682Z,9.52
2023-03-06T03:29:23.662Z,6.97
2023-03-06T03:30:26.609Z,7.68
2023-03-06T03:31:29.660Z,9.02
2023-03-06T03:32:32.648Z,9.13
2023-03-06T03:33:36.096Z,6.45
2023-03-06T03:34:39.034Z,8.55
2023-03-06T03:35:42.232Z,5.80
2023-03-06T03:36:45.937Z,6.47
2023-03-06T03:37:48.984Z,5.50
2023-03-06T03:38:52.020Z,7.60
2023-03-06T03:39:54.935Z,8.98
2023-03-06T03:40:57.915Z,6.25
2023-03-06T03:42:00.880Z,7.82
2023-03-06T03:43:03.761Z,7.95
2023-03-06T03:44:06.796Z,7.75
2023-03-06T03:45:10.179Z,10.82
2023-03-06T03:46:13.232Z,6.90
2023-03-06T03:47:16.245Z,8.00
2023-03-06T03:48:19.561Z,8.30
2023-03-06T03:49:22.503Z,8.05
2023-03-06T03:50:25.746Z,6.85
2023-03-06T03:51:28.672Z,6.65
2023-03-06T03:52:31.814Z,7.30
2023-03-06T03:53:34.963Z,8.02
2023-03-06T03:54:38.001Z,7.37
2023-03-06T03:55:40.888Z,8.40
2023-03-06T03:56:44.783Z,7.18
2023-03-06T03:57:47.725Z,5.68
2023-03-06T03:58:51.053Z,7.97
2023-03-06T03:59:54.234Z,8.32
2023-03-06T04:00:57.411Z,6.32
2023-03-06T04:02:01.036Z,7.07
2023-03-06T04:03:04.133Z,6.32
2023-03-06T04:04:07.631Z,8.50
2023-03-06T04:05:15.456Z,8.13
2023-03-06T04:06:18.524Z,6.78
2023-03-06T04:07:21.464Z,6.43
2023-03-06T04:08:25.769Z,8.52
2023-03-06T04:09:28.772Z,7.40
2023-03-06T04:10:32.375Z,8.30
2023-03-06T04:11:35.439Z,7.90
2023-03-06T04:12:38.476Z,8.32
2023-03-06T04:13:41.447Z,7.05
2023-03-06T04:14:44.368Z,8.13
2023-03-06T04:15:49.168Z,7.60
2023-03-06T04:16:52.081Z,7.28
2023-03-06T04:17:55.050Z,7.93
2023-03-06T04:18:58.020Z,6.15
2023-03-06T04:20:02.275Z,7.87
2023-03-06T04:21:05.477Z,7.22
2023-03-06T04:22:08.361Z,9.80
2023-03-06T04:23:11.698Z,7.93
2023-03-06T04:24:14.663Z,8.07
2023-03-06T04:25:17.855Z,8.68
2023-03-06T04:26:21.038Z,7.53
2023-03-06T04:27:24.251Z,7.32
2023-03-06T04:28:27.482Z,7.90
2023-03-06T04:29:31.115Z,9.95
2023-03-06T04:30:34.346Z,9.43
2023-03-06T04:31:37.470Z,7.22
2023-03-06T04:32:40.776Z,10.93
2023-03-06T04:33:43.854Z,9.43
2023-03-06T04:34:46.908Z,7.72
2023-03-06T04:35:50.782Z,6.93
2023-03-06T04:36:53.721Z,7.78
2023-03-06T04:37:56.969Z,8.07
2023-03-06T04:39:00.667Z,9.80
2023-03-06T04:40:04.676Z,8.73
2023-03-06T04:41:07.889Z,10.15
2023-03-06T04:42:11.039Z,8.73
2023-03-06T04:43:13.957Z,11.43
2023-03-06T04:44:16.859Z,8.20
2023-03-06T04:46:23.052Z,10.63
2023-03-06T04:47:26.142Z,7.12
2023-03-06T04:48:29.076Z,8.75
2023-03-06T04:49:32.249Z,8.75
2023-03-06T04:50:35.171Z,9.23
2023-03-06T04:51:38.125Z,8.95
2023-03-06T04:52:41.141Z,12.18
2023-03-06T04:53:44.297Z,7.90
2023-03-06T04:54:47.210Z,10.75
2023-03-06T04:55:50.305Z,10.27
2023-03-06T04:56:53.201Z,10.45
2023-03-06T04:57:56.417Z,11.05
2023-03-06T04:58:59.449Z,9.20
2023-03-06T05:00:04.905Z,8.95
2023-03-06T05:01:07.896Z,10.38
2023-03-06T05:02:11.018Z,11.00
2023-03-06T05:03:14.667Z,11.25
2023-03-06T05:04:17.786Z,9.73
2023-03-06T05:05:20.722Z,8.48
2023-03-06T05:06:23.675Z,12.73
2023-03-06T05:07:26.572Z,9.68
2023-03-06T05:08:29.774Z,11.07
2023-03-06T05:09:34.326Z,10.18
2023-03-06T05:10:37.412Z,11.15
2023-03-06T05:11:40.227Z,11.48
2023-03-06T05:12:43.708Z,10.88
2023-03-06T05:13:46.627Z,8.98
2023-03-06T05:14:49.652Z,10.50
2023-03-06T05:15:53.022Z,10.90
2023-03-06T05:16:56.357Z,13.55
2023-03-06T05:17:59.491Z,11.27
2023-03-06T05:19:02.402Z,16.83
2023-03-06T05:20:09.992Z,11.55
2023-03-06T05:21:13.244Z,10.55
2023-03-06T05:22:16.101Z,13.10
2023-03-06T05:23:19.025Z,11.10
2023-03-06T05:24:21.945Z,12.43
2023-03-06T05:25:24.990Z,10.40
2023-03-06T05:26:28.116Z,10.48
2023-03-06T05:27:31.393Z,10.38
2023-03-06T05:28:34.404Z,13.73
2023-03-06T05:29:37.699Z,12.57
2023-03-06T05:30:40.811Z,13.20
2023-03-06T05:31:44.991Z,14.60
2023-03-06T05:32:48.090Z,10.27
2023-03-06T05:33:51.144Z,14.07
2023-03-06T05:34:54.356Z,13.02
2023-03-06T05:35:57.334Z,14.60
2023-03-06T05:37:02.170Z,13.88
2023-03-06T05:38:05.228Z,11.45
2023-03-06T05:39:08.672Z,13.45
2023-03-06T05:40:12.465Z,9.88
2023-03-06T05:41:15.638Z,11.40
2023-03-06T05:42:18.684Z,10.88
2023-03-06T05:43:21.574Z,12.55
2023-03-06T05:44:24.532Z,10.35
2023-03-06T05:45:27.497Z,11.45
2023-03-06T05:46:30.292Z,12.07
2023-03-06T05:47:33.664Z,11.50
2023-03-06T05:48:37.845Z,11.77
2023-03-06T05:49:41.677Z,10.02
2023-03-06T05:50:44.864Z,11.93
2023-03-06T05:51:47.855Z,11.82
2023-03-06T05:52:50.755Z,10.88
2023-03-06T05:53:53.670Z,10.88
2023-03-06T05:54:56.684Z,11.77
2023-03-06T05:56:01.848Z,12.15
2023-03-06T05:57:06.231Z,12.68
2023-03-06T05:58:09.197Z,10.93
2023-03-06T05:59:12.263Z,8.35
2023-03-06T06:00:16.160Z,13.98
2023-03-06T06:01:21.046Z,10.90
2023-03-06T06:02:23.968Z,10.07
2023-03-06T06:03:27.361Z,12.05
2023-03-06T06:04:30.291Z,12.98
2023-03-06T06:05:33.329Z,12.63
2023-03-06T06:06:36.263Z,13.85
2023-03-06T06:07:39.418Z,9.95
2023-03-06T06:08:42.637Z,14.45
2023-03-06T06:09:46.463Z,11.32
2023-03-06T06:10:51.566Z,12.00
2023-03-06T06:12:00.058Z,13.00
2023-03-06T06:13:03.088Z,13.60
2023-03-06T06:14:05.954Z,10.77
2023-03-06T06:15:09.115Z,14.05
2023-03-06T06:16:19.640Z,12.73
2023-03-06T06:17:22.602Z,15.77
2023-03-06T06:18:25.679Z,16.85
2023-03-06T06:19:30.509Z,11.75
2023-03-06T06:20:33.597Z,13.55
2023-03-06T06:21:36.401Z,13.13
2023-03-06T06:22:39.384Z,14.52
2023-03-06T06:23:42.254Z,11.48
2023-03-06T06:24:45.080Z,12.27
2023-03-06T06:25:47.963Z,10.73
2023-03-06T06:26:55.419Z,12.82
2023-03-06T06:27:58.459Z,12.37
2023-03-06T06:29:01.374Z,12.98
2023-03-06T06:30:06.556Z,11.82
2023-03-06T06:31:12.578Z,13.93
2023-03-06T06:32:15.759Z,10.35
2023-03-06T06:33:18.765Z,9.85
2023-03-06T06:34:22.615Z,13.13
2023-03-06T06:35:25.907Z,13.23
2023-03-06T06:36:29.162Z,12.77
2023-03-06T06:37:32.246Z,10.95
2023-03-06T06:38:35.173Z,12.32
2023-03-06T06:39:38.146Z,13.57
2023-03-06T06:40:40.985Z,13.25
2023-03-06T06:41:57.259Z,12.23
2023-03-06T06:43:07.440Z,13.25
2023-03-06T06:44:14.756Z,12.50
2023-03-06T06:45:17.684Z,14.95
2023-03-06T06:47:02.729Z,10.48
2023-03-06T06:47:44.804Z,13.13
2023-03-06T06:48:54.909Z,11.32
2023-03-06T06:49:57.996Z,11.32
2023-03-06T06:51:01.062Z,12.75
2023-03-06T06:52:05.252Z,11.27
2023-03-06T06:53:08.071Z,12.80
2023-03-06T06:54:12.458Z,14.02
2023-03-06T06:55:15.575Z,13.65
2023-03-06T06:56:18.670Z,10.57
2023-03-06T06:57:22.166Z,11.75
2023-03-06T06:58:25.397Z,16.02
2023-03-06T06:59:28.320Z,13.77
2023-03-06T07:00:31.209Z,10.98
2023-03-06T07:01:34.088Z,15.18
2023-03-06T07:02:37.052Z,13.18
2023-03-06T07:03:41.015Z,10.73
2023-03-06T07:05:02.095Z,12.95
2023-03-06T07:07:09.725Z,11.20
2023-03-06T07:08:12.749Z,10.38
2023-03-06T07:09:16.480Z,11.07
2023-03-06T07:10:20.731Z,12.02
2023-03-06T07:11:24.136Z,12.18
2023-03-06T07:12:27.292Z,13.85
2023-03-06T07:13:30.341Z,15.40
2023-03-06T07:14:33.640Z,12.32
2023-03-06T07:15:36.656Z,14.07
2023-03-06T07:16:40.013Z,13.23
2023-03-06T07:17:42.989Z,10.68
2023-03-06T07:18:46.078Z,13.65
2023-03-06T07:19:49.050Z,12.75
2023-03-06T07:20:54.057Z,13.27
2023-03-06T07:21:57.059Z,12.63
2023-03-06T07:23:00.105Z,13.73
2023-03-06T07:24:02.983Z,13.52
2023-03-06T07:25:06.829Z,10.18
2023-03-06T07:26:09.645Z,13.80
2023-03-06T07:27:12.768Z,10.38
2023-03-06T07:28:18.540Z,12.10
2023-03-06T07:29:22.495Z,13.10
2023-03-06T07:30:25.755Z,13.40
2023-03-06T07:31:29.077Z,12.10
2023-03-06T07:32:32.205Z,14.80
2023-03-06T07:33:35.173Z,13.73
2023-03-06T07:34:38.289Z,12.13
2023-03-06T07:35:42.712Z,12.18
2023-03-06T07:36:45.639Z,15.15
2023-03-06T07:37:48.825Z,11.15
2023-03-06T07:38:51.875Z,15.32
2023-03-06T07:39:54.903Z,12.30
2023-03-06T07:40:57.879Z,14.10
2023-03-06T07:42:00.820Z,12.40
2023-03-06T07:43:18.363Z,11.73
2023-03-06T07:44:22.499Z,14.25
2023-03-06T07:45:26.293Z,12.85
2023-03-06T07:46:29.561Z,14.02
2023-03-06T07:47:32.564Z,8.90
2023-03-06T07:48:36.901Z,10.40
2023-03-06T07:49:40.453Z,13.88
2023-03-06T07:50:43.647Z,11.48
2023-03-06T07:51:46.849Z,12.90
2023-03-06T07:52:50.860Z,10.77
2023-03-06T07:53:53.836Z,14.13
2023-03-06T07:54:56.910Z,13.82
2023-03-06T07:56:00.374Z,12.52
2023-03-06T07:57:03.325Z,15.50
2023-03-06T07:58:06.265Z,10.52
2023-03-06T07:59:12.224Z,14.57
2023-03-06T08:00:16.024Z,11.68
2023-03-06T08:01:23.759Z,13.57
2023-03-06T08:02:26.733Z,11.50
2023-03-06T08:03:29.726Z,12.50
2023-03-06T08:04:32.827Z,12.10
2023-03-06T08:05:35.860Z,13.10
2023-03-06T08:06:39.268Z,15.35
2023-03-06T08:07:43.893Z,13.65
2023-03-06T08:08:48.153Z,12.70
2023-03-06T08:09:51.068Z,12.32
2023-03-06T08:10:53.874Z,13.88
2023-03-06T08:11:57.337Z,14.98
2023-03-06T08:13:00.286Z,14.23
2023-03-06T08:14:03.317Z,15.75
2023-03-06T08:15:06.788Z,14.73
2023-03-06T08:16:10.691Z,15.15
2023-03-06T08:17:14.064Z,14.95
2023-03-06T08:18:17.174Z,12.48
2023-03-06T08:19:20.088Z,13.68
2023-03-06T08:20:23.012Z,13.62
2023-03-06T08:21:28.065Z,12.60
2023-03-06T08:22:30.997Z,14.90
2023-03-06T08:23:34.931Z,14.18
2023-03-06T08:24:38.146Z,13.55
2023-03-06T08:25:41.111Z,13.45
2023-03-06T08:26:44.374Z,11.68
2023-03-06T08:27:47.699Z,13.05
2023-03-06T08:28:55.435Z,13.73
2023-03-06T08:29:59.047Z,14.50
2023-03-06T08:31:11.118Z,13.23
2023-03-06T08:32:14.072Z,14.27
2023-03-06T08:33:17.083Z,11.73
2023-03-06T08:34:22.304Z,12.68
2023-03-06T08:35:25.417Z,12.68
2023-03-06T08:36:28.784Z,12.00
2023-03-06T08:37:32.125Z,12.95
2023-03-06T08:38:35.456Z,10.95
2023-03-06T08:39:38.553Z,12.93
2023-03-06T08:40:46.084Z,13.18
2023-03-06T08:41:49.120Z,13.75
2023-03-06T08:42:52.210Z,13.98
2023-03-06T08:43:55.212Z,13.80
2023-03-06T08:44:58.253Z,17.42
2023-03-06T08:46:01.284Z,13.18
2023-03-06T08:47:04.771Z,13.77
2023-03-06T08:48:07.784Z,11.30
2023-03-06T08:49:12.533Z,12.10
2023-03-06T08:50:15.567Z,12.25
2023-03-06T08:51:19.202Z,13.85
2023-03-06T08:52:22.250Z,15.85
2023-03-06T08:53:40.448Z,13.40
2023-03-06T08:54:45.163Z,12.10
2023-03-06T08:55:48.483Z,15.05
2023-03-06T08:56:51.533Z,13.02
2023-03-06T08:57:55.020Z,12.98
2023-03-06T08:58:59.780Z,12.75
2023-03-06T09:00:09.054Z,13.30
2023-03-06T09:01:21.191Z,11.73
2023-03-06T09:02:24.318Z,13.85
2023-03-06T09:03:27.672Z,12.43
2023-03-06T09:04:31.865Z,10.43
2023-03-06T09:05:35.141Z,10.75
2023-03-06T09:06:41.558Z,10.93
2023-03-06T09:07:44.636Z,12.25
2023-03-06T09:08:47.962Z,9.27
2023-03-06T09:09:52.200Z,14.27
2023-03-06T09:10:55.334Z,10.25
2023-03-06T09:11:58.347Z,9.63
2023-03-06T09:13:01.828Z,9.82
2023-03-06T09:14:05.798Z,10.57
2023-03-06T09:15:09.296Z,11.73
2023-03-06T09:16:13.068Z,15.60
2023-03-06T09:17:16.143Z,12.63
2023-03-06T09:18:19.170Z,13.65
2023-03-06T09:19:22.122Z,10.45
2023-03-06T09:20:25.121Z,11.65
2023-03-06T09:21:28.942Z,15.90
2023-03-06T09:22:33.083Z,14.07
2023-03-06T09:23:36.507Z,13.30
2023-03-06T09:24:39.926Z,11.40
2023-03-06T09:25:43.014Z,11.38
2023-03-06T09:26:47.981Z,13.45
2023-03-06T09:28:08.780Z,11.73
2023-03-06T09:29:13.487Z,11.63
2023-03-06T09:30:18.455Z,13.23
2023-03-06T09:31:21.646Z,13.05
2023-03-06T09:32:25.197Z,11.60
2023-03-06T09:33:29.021Z,12.27
2023-03-06T09:34:32.271Z,12.55
2023-03-06T09:35:35.759Z,11.52
2023-03-06T09:36:55.032Z,12.45
2023-03-06T09:37:59.474Z,15.27
2023-03-06T09:39:02.611Z,12.15
2023-03-06T09:40:07.195Z,15.25
2023-03-06T09:41:23.928Z,12.93
2023-03-06T09:42:28.632Z,11.05
2023-03-06T09:43:37.599Z,18.02
2023-03-06T09:44:41.465Z,14.38
2023-03-06T09:45:44.866Z,11.93
2023-03-06T09:47:00.517Z,11.77
2023-03-06T09:48:16.152Z,13.38
2023-03-06T09:49:50.572Z,11.75
2023-03-06T09:51:02.823Z,14.75
2023-03-06T09:52:24.769Z,13.10
2023-03-06T09:53:45.534Z,14.90
2023-03-06T09:55:05.379Z,14.80
2023-03-06T09:56:19.112Z,15.55
2023-03-06T09:57:36.783Z,12.82
2023-03-06T09:58:45.812Z,14.87
2023-03-06T09:59:53.966Z,14.20
2023-03-06T10:01:03.060Z,12.13
2023-03-06T10:02:19.418Z,15.07
2023-03-06T10:03:28.428Z,18.42
2023-03-06T10:04:40.866Z,15.05
2023-03-06T10:05:50.433Z,13.30
2023-03-06T10:07:01.739Z,12.25
2023-03-06T10:08:17.424Z,14.82
2023-03-06T10:09:46.854Z,13.75
2023-03-06T10:11:06.032Z,11.80
2023-03-06T10:12:28.908Z,18.75
2023-03-06T10:13:46.096Z,15.02
2023-03-06T10:15:01.296Z,16.45
2023-03-06T10:16:12.878Z,13.93
2023-03-06T10:18:23.788Z,15.00
2023-03-06T10:19:33.937Z,16.00
2023-03-06T10:21:18.812Z,14.73
2023-03-06T10:23:11.823Z,14.57
2023-03-06T10:24:33.903Z,20.58
2023-03-06T10:26:57.384Z,20.33
2023-03-06T10:28:17.212Z,15.63
2023-03-06T10:29:30.588Z,13.95
2023-03-06T10:31:06.103Z,14.80
2023-03-06T10:32:50.565Z,15.10
2023-03-06T10:34:04.492Z,18.45
2023-03-06T10:35:17.571Z,17.83
2023-03-06T10:36:23.116Z,18.48
2023-03-06T10:37:31.013Z,16.45
2023-03-06T10:38:38.640Z,14.63
2023-03-06T10:39:41.711Z,22.00
2023-03-06T10:41:13.774Z,18.00
2023-03-06T10:42:17.919Z,17.70
2023-03-06T10:43:23.305Z,17.75
2023-03-06T10:44:26.343Z,16.42
2023-03-06T10:45:35.183Z,13.60
2023-03-06T10:46:47.055Z,16.23
2023-03-06T10:47:50.428Z,15.63
2023-03-06T10:49:22.441Z,16.95
2023-03-06T10:50:32.469Z,18.17
2023-03-06T10:51:35.872Z,14.82
2023-03-06T10:52:39.829Z,16.62
2023-03-06T10:53:59.700Z,15.77
2023-03-06T10:55:32.291Z,16.77
2023-03-06T10:56:42.467Z,16.87
2023-03-06T10:57:45.639Z,15.35
2023-03-06T10:58:54.745Z,16.90
2023-03-06T11:00:01.464Z,16.17
2023-03-06T11:01:18.386Z,16.80
2023-03-06T11:02:36.757Z,15.93
2023-03-06T11:03:39.784Z,22.35
2023-03-06T11:04:51.389Z,16.08
2023-03-06T11:07:19.631Z,19.48
2023-03-06T11:08:23.695Z,21.90
2023-03-06T11:09:27.124Z,16.70
2023-03-06T11:10:32.096Z,17.73
2023-03-06T11:11:37.873Z,17.60
2023-03-06T11:12:42.848Z,16.35
2023-03-06T11:13:57.540Z,17.45
2023-03-06T11:15:23.358Z,17.00
2023-03-06T11:16:33.513Z,17.45
2023-03-06T11:17:58.031Z,18.17
2023-03-06T11:19:04.302Z,18.73
2023-03-06T11:20:20.108Z,19.40
2023-03-06T11:21:31.364Z,21.62
2023-03-06T11:22:36.495Z,19.25
2023-03-06T11:23:46.916Z,19.98
2023-03-06T11:24:54.347Z,21.95
2023-03-06T11:26:03.019Z,18.00
2023-03-06T11:27:42.922Z,14.38
2023-03-06T11:28:59.556Z,20.15
2023-03-06T11:30:19.696Z,18.08
2023-03-06T11:31:27.376Z,17.90
2023-03-06T11:32:33.579Z,14.48
2023-03-06T11:33:43.194Z,16.77
2023-03-06T11:35:20.486Z,17.35
2023-03-06T11:36:48.582Z,20.30
2023-03-06T11:38:07.155Z,15.07
2023-03-06T11:39:51.482Z,20.58
2023-03-06T11:41:02.762Z,20.35
2023-03-06T11:42:15.254Z,19.05
2023-03-06T11:43:34.752Z,15.60
2023-03-06T11:44:45.136Z,25.95
2023-03-06T11:45:57.920Z,20.77
2023-03-06T11:47:11.363Z,20.37
2023-03-06T11:48:17.795Z,15.80
2023-03-06T11:49:35.350Z,14.27
2023-03-06T11:50:51.863Z,19.35
2023-03-06T11:51:58.042Z,15.70
2023-03-06T11:53:07.146Z,17.35
2023-03-06T11:54:14.522Z,15.63
2023-03-06T11:55:35.897Z,18.95
2023-03-06T11:56:50.963Z,18.17
2023-03-06T11:58:18.584Z,17.67
2023-03-06T11:59:47.427Z,16.02
2023-03-06T12:01:08.197Z,18.73
2023-03-06T12:02:43.502Z,19.73
2023-03-06T12:04:24.074Z,19.40
2023-03-06T12:05:32.614Z,19.02
2023-03-06T12:07:11.214Z,25.02
2023-03-06T12:08:17.703Z,17.12
2023-03-06T12:09:23.510Z,17.77
2023-03-06T12:11:02.982Z,17.65
2023-03-06T12:12:34.278Z,21.00
2023-03-06T12:14:14.590Z,19.20
2023-03-06T12:15:44.390Z,17.45
2023-03-06T12:16:56.432Z,16.98
2023-03-06T12:18:17.296Z,19.65
2023-03-06T12:19:25.977Z,16.17
2023-03-06T12:20:40.986Z,17.67
2023-03-06T12:22:17.754Z,20.88
2023-03-06T12:23:54.509Z,17.65
2023-03-06T12:25:34.910Z,19.92
2023-03-06T12:27:16.974Z,20.85
2023-03-06T12:28:51.709Z,16.23
2023-03-06T12:30:21.853Z,23.20
2023-03-06T12:32:18.099Z,18.70
2023-03-06T12:33:33.177Z,19.08
2023-03-06T12:34:50.845Z,17.37
2023-03-06T12:36:00.814Z,14.85
2023-03-06T12:37:09.802Z,17.58
2023-03-06T12:38:41.972Z,21.92
2023-03-06T12:39:57.172Z,16.40
2023-03-06T12:41:16.937Z,17.20
2023-03-06T12:42:55.709Z,15.32
2023-03-06T12:44:26.228Z,18.05
2023-03-06T12:45:37.645Z,19.50
2023-03-06T12:46:47.097Z,21.12
2023-03-06T12:47:54.109Z,19.85
2023-03-06T12:49:31.499Z,18.60
2023-03-06T12:50:39.375Z,16.67
2023-03-06T12:51:45.034Z,16.90
2023-03-06T12:52:49.231Z,17.40
2023-03-06T12:53:52.846Z,20.05
2023-03-06T12:54:59.290Z,16.42
2023-03-06T12:56:03.527Z,22.58
2023-03-06T12:57:08.861Z,20.37
2023-03-06T12:58:54.291Z,17.17
2023-03-06T12:59:57.258Z,18.52
2023-03-06T13:01:06.361Z,24.12
2023-03-06T13:02:28.201Z,18.50
2023-03-06T13:05:12.949Z,19.17
2023-03-06T13:06:49.833Z,14.67
2023-03-06T13:08:21.519Z,18.65
2023-03-06T13:09:53.566Z,17.92
2023-03-06T13:11:16.586Z,19.20
2023-03-06T13:12:41.098Z,17.92
2023-03-06T13:13:46.347Z,19.48
2023-03-06T13:14:55.304Z,19.02
2023-03-06T13:16:04.067Z,25.02
2023-03-06T13:17:28.954Z,19.60
2023-03-06T13:18:34.616Z,15.52
2023-03-06T13:19:38.027Z,19.67
2023-03-06T13:20:45.350Z,17.40
2023-03-06T13:22:02.202Z,19.33
2023-03-06T13:23:30.488Z,19.75
2023-03-06T13:24:40.045Z,19.83
2023-03-06T13:25:50.462Z,19.00
2023-03-06T13:27:13.436Z,19.75
2023-03-06T13:28:40.533Z,24.02
2023-03-06T13:29:51.247Z,20.35
2023-03-06T13:30:56.934Z,19.55
2023-03-06T13:32:03.778Z,19.60
2023-03-06T13:33:39.014Z,18.12
2023-03-06T13:34:47.190Z,19.23
2023-03-06T13:36:27.491Z,17.83
2023-03-06T13:37:33.796Z,19.62
2023-03-06T13:38:54.584Z,22.45
2023-03-06T13:39:58.683Z,18.05
2023-03-06T13:41:23.483Z,18.75
2023-03-06T13:42:40.859Z,20.85
2023-03-06T13:43:45.465Z,20.27
2023-03-06T13:44:51.293Z,18.15
2023-03-06T13:45:54.533Z,19.08
2023-03-06T13:47:06.593Z,17.23
2023-03-06T13:48:47.823Z,20.35
2023-03-06T13:49:51.218Z,21.52
2023-03-06T13:50:55.834Z,19.92
2023-03-06T13:52:06.347Z,20.70
2023-03-06T13:53:53.915Z,20.80
2023-03-06T13:55:24.481Z,20.42
2023-03-06T13:56:40.167Z,21.25
2023-03-06T13:57:52.264Z,20.45
2023-03-06T13:59:04.105Z,16.08
2023-03-06T14:01:34.171Z,18.52
2023-03-06T14:03:06.328Z,19.73
2023-03-06T14:04:30.996Z,20.08
2023-03-06T14:05:45.643Z,18.50
2023-03-06T14:07:09.904Z,21.35
2023-03-06T14:08:22.432Z,20.15
2023-03-06T14:09:25.553Z,20.60
2023-03-06T14:10:32.412Z,18.52
2023-03-06T14:11:38.169Z,14.52
2023-03-06T14:12:43.147Z,23.40
2023-03-06T14:13:57.168Z,23.23
2023-03-06T14:15:06.640Z,18.87
2023-03-06T14:16:48.647Z,20.10
2023-03-06T14:18:03.169Z,24.30
2023-03-06T14:19:15.741Z,18.05
2023-03-06T14:20:21.027Z,17.17
2023-03-06T14:21:31.150Z,17.70
2023-03-06T14:22:34.249Z,15.63
2023-03-06T14:23:42.758Z,21.87
2023-03-06T14:25:05.276Z,20.35
2023-03-06T14:26:08.398Z,18.90
2023-03-06T14:27:19.407Z,19.73
2023-03-06T14:28:32.547Z,16.70
2023-03-06T14:29:35.653Z,16.83
2023-03-06T14:30:48.867Z,24.95
2023-03-06T14:31:55.002Z,23.58
2023-03-06T14:32:57.908Z,20.65
2023-03-06T14:34:05.168Z,21.45
2023-03-06T14:35:24.891Z,22.23
2023-03-06T14:36:44.267Z,17.40
2023-03-06T14:37:56.154Z,20.23
2023-03-06T14:39:02.818Z,17.35
2023-03-06T14:40:11.565Z,22.23
2023-03-06T14:41:48.781Z,20.55
2023-03-06T14:43:12.558Z,19.70
2023-03-06T14:44:24.574Z,20.45
2023-03-06T14:45:27.573Z,21.33
2023-03-06T14:46:30.749Z,19.70
2023-03-06T14:47:36.473Z,21.80
2023-03-06T14:48:44.690Z,21.73
2023-03-06T14:49:48.279Z,23.15
2023-03-06T14:50:58.314Z,21.85
2023-03-06T14:52:01.612Z,20.67